Alamo, North Dakota
Current Conditions -  °F | °C
As of 5:55 AM on Friday 19 Dec 2014 (Local Time) from KD50 Reporting Station
Haze Haze  
Wind Chill: 19°   Ceiling: 100
Heat Index: 25°   Visibility: 1.7mi
Dew Point: 25°   Wind: 5mph
Humidity: 100%   Direction: 280°W
Pressure: 29.92"   Gusts: NA
Location:  48.58°N, 103.47°W
Report Text: KD50 191155Z AUTO 28004KT 1 3/4SM BR OVC001 M04/M04 A2992 RMK AO2
Loading
Personal Weather Stations






























Interactive Weather Map New forecast layout! Learn more

10-Day Weather Forecast

Advertisements
Track Severe Weather on mobile